Time;durP1;ratioP1;P1;durP2;ratioP2;P2;SDS_P1;SDS_P2;PMS_P1;PMS_P2;Temp;Humidity;BMP_temperature;BMP_pressure;BME280_temperature;BME280_humidity;BME280_pressure;Samples;Min_cycle;Max_cycle;Signal;HPM_P1;HPM_P2
2022/11/02 00:00:33;;;;;;;8.48;5.05;;;;;;;11.25;82.67;100561.06;4979554;28;20055;-88
2022/11/02 00:03:00;;;;;;;8.43;4.47;;;;;;;11.28;82.59;100571.44;4951975;28;20046;-89
2022/11/02 00:05:29;;;;;;;8.73;4.78;;;;;;;11.25;82.73;100569.88;4934404;28;20067;-88
2022/11/02 00:07:56;;;;;;;8.25;5.63;;;;;;;11.24;82.52;100567.31;4917466;28;20054;-87
2022/11/02 00:10:23;;;;;;;9.48;5.57;;;;;;;11.25;82.79;100569.88;4927635;28;20376;-87
2022/11/02 00:12:51;;;;;;;10.13;5.50;;;;;;;11.27;82.50;100572.38;4937307;28;20101;-88
2022/11/02 00:15:18;;;;;;;11.27;5.30;;;;;;;11.19;82.78;100574.81;4961242;28;20698;-87
2022/11/02 00:17:47;;;;;;;8.43;4.93;;;;;;;11.14;82.65;100569.03;4933730;28;20042;-88
2022/11/02 00:20:16;;;;;;;7.35;4.93;;;;;;;11.16;83.05;100557.31;4971187;28;20046;-88
2022/11/02 00:22:43;;;;;;;11.48;5.38;;;;;;;11.23;82.42;100569.13;4970458;28;20051;-88
2022/11/02 00:25:11;;;;;;;10.13;5.13;;;;;;;11.16;83.02;100559.13;4983798;28;20128;-88
2022/11/02 00:27:39;;;;;;;10.23;5.38;;;;;;;11.19;83.16;100556.22;4967441;28;20044;-88
2022/11/02 00:30:07;;;;;;;13.93;5.65;;;;;;;11.22;82.84;100566.59;4984458;28;20124;-88
2022/11/02 00:32:33;;;;;;;13.40;6.22;;;;;;;11.21;83.20;100560.44;5001752;28;20056;-88
2022/11/02 00:35:01;;;;;;;15.68;6.05;;;;;;;11.18;83.67;100563.34;4956000;28;20050;-87
2022/11/02 00:37:28;;;;;;;9.77;5.43;;;;;;;11.16;83.42;100567.94;4970847;28;20616;-88
2022/11/02 00:39:55;;;;;;;11.57;5.63;;;;;;;11.20;83.53;100565.91;4952311;28;20409;-88
2022/11/02 00:42:22;;;;;;;8.18;5.15;;;;;;;11.22;83.30;100570.13;4966560;28;20555;-88
2022/11/02 00:44:48;;;;;;;6.95;5.13;;;;;;;11.23;83.60;100569.13;4956477;28;20152;-88
2022/11/02 00:47:17;;;;;;;9.13;4.32;;;;;;;11.18;83.61;100581.13;4936533;28;20046;-88
2022/11/02 00:49:45;;;;;;;12.63;5.15;;;;;;;11.13;83.86;100572.66;4952067;28;20398;-88
2022/11/02 00:52:12;;;;;;;10.77;4.95;;;;;;;11.11;84.27;100574.59;4950636;28;20050;-88
2022/11/02 00:54:39;;;;;;;10.45;4.53;;;;;;;11.09;84.44;100577.34;4984804;28;20398;-88
2022/11/02 00:57:06;;;;;;;13.35;5.43;;;;;;;11.09;84.20;100566.72;4953646;28;20050;-87
2022/11/02 00:59:33;;;;;;;14.48;5.97;;;;;;;11.08;84.80;100570.34;4967924;28;20047;-87
2022/11/02 01:02:00;;;;;;;9.80;5.95;;;;;;;11.15;84.55;100570.72;4955973;28;20476;-88
2022/11/02 01:04:27;;;;;;;9.40;4.88;;;;;;;11.16;83.96;100572.41;4970100;28;23341;-87
2022/11/02 01:06:54;;;;;;;8.27;4.95;;;;;;;11.10;84.16;100570.25;4965586;28;20050;-87
2022/11/02 01:09:20;;;;;;;9.00;5.63;;;;;;;11.05;84.29;100562.63;4966038;28;20059;-87
2022/11/02 01:11:47;;;;;;;9.15;4.75;;;;;;;11.06;83.88;100566.97;4952286;28;20038;-87
2022/11/02 01:14:14;;;;;;;6.95;4.93;;;;;;;11.08;83.50;100562.38;4952464;28;20043;-87
2022/11/02 01:16:43;;;;;;;8.20;5.22;;;;;;;11.03;83.35;100565.41;4927388;28;20060;-87
2022/11/02 01:19:17;;;;;;;9.02;5.25;;;;;;;10.97;83.22;100560.56;4969346;28;20417;-87
2022/11/02 01:21:44;;;;;;;14.68;5.10;;;;;;;10.99;83.22;100568.41;4970384;28;20050;-88
2022/11/02 01:24:10;;;;;;;20.98;5.55;;;;;;;10.90;82.96;100555.88;4970872;28;20140;-87
2022/11/02 01:26:37;;;;;;;12.30;5.38;;;;;;;10.84;83.00;100565.16;4979188;28;20383;-87
2022/11/02 01:29:04;;;;;;;7.43;4.50;;;;;;;10.82;83.67;100559.97;4966557;28;20042;-87
2022/11/02 01:31:31;;;;;;;6.97;4.50;;;;;;;10.87;83.08;100559.59;4958814;28;20097;-88
2022/11/02 01:33:57;;;;;;;8.15;4.65;;;;;;;10.78;82.56;100561.16;4953170;28;20553;-87
2022/11/02 01:36:24;;;;;;;10.57;4.25;;;;;;;10.74;81.47;100554.41;4972272;28;20097;-87
2022/11/02 01:38:51;;;;;;;11.93;4.38;;;;;;;10.69;81.20;100553.91;4972827;28;20124;-87
2022/11/02 01:41:18;;;;;;;7.00;3.95;;;;;;;10.67;80.43;100553.19;4964599;28;20101;-86
2022/11/02 01:43:45;;;;;;;9.50;3.90;;;;;;;10.73;79.38;100557.16;4980659;28;20061;-88
2022/11/02 01:46:17;;;;;;;10.73;4.18;;;;;;;10.62;79.14;100550.03;4964151;28;20057;-87
2022/11/02 01:48:48;;;;;;;12.80;3.97;;;;;;;10.58;79.26;100545.91;4955418;28;20108;-87
2022/11/02 01:51:21;;;;;;;10.30;4.32;;;;;;;10.50;79.84;100553.63;4973083;28;20574;-87
2022/11/02 01:53:49;;;;;;;12.80;4.65;;;;;;;10.55;80.69;100544.34;4953267;28;20038;-87
2022/11/02 01:56:18;;;;;;;9.48;4.60;;;;;;;10.65;80.81;100550.63;4973509;28;20130;-87
2022/11/02 01:58:51;;;;;;;9.65;4.60;;;;;;;10.57;81.12;100545.06;4953064;28;20053;-87
2022/11/02 02:01:18;;;;;;;9.90;4.45;;;;;;;10.61;81.04;100545.69;4983203;28;20067;-87
2022/11/02 02:03:46;;;;;;;13.18;5.03;;;;;;;10.64;80.42;100543.66;4956748;28;20042;-88
2022/11/02 02:06:14;;;;;;;11.00;4.75;;;;;;;10.59;80.62;100550.28;4957709;28;20046;-87
2022/11/02 02:08:46;;;;;;;10.68;4.30;;;;;;;10.56;80.32;100543.41;4955869;28;20157;-87
2022/11/02 02:11:28;;;;;;;7.82;4.45;;;;;;;10.45;78.48;100551.31;4970740;28;20050;-87
2022/11/02 02:14:06;;;;;;;8.38;3.85;;;;;;;10.49;78.46;100547.47;4937690;28;20054;-87
2022/11/02 02:17:05;;;;;;;8.18;4.03;;;;;;;10.29;78.38;100548.16;4967329;28;20065;-87
2022/11/02 02:19:51;;;;;;;7.82;3.53;;;;;;;10.41;78.91;100547.22;4979008;28;20046;-87
2022/11/02 02:22:32;;;;;;;6.57;4.00;;;;;;;10.36;78.27;100546.72;4976298;28;20969;-87
2022/11/02 02:25:49;;;;;;;14.85;4.38;;;;;;;10.21;78.26;100538.94;4946343;28;20050;-88
2022/11/02 02:28:18;;;;;;;13.00;4.35;;;;;;;10.43;78.86;100543.50;4865767;28;20046;-87
2022/11/02 02:30:56;;;;;;;8.77;4.78;;;;;;;10.31;78.46;100546.25;4980479;28;20133;-87
2022/11/02 02:33:33;;;;;;;7.32;3.92;;;;;;;10.34;78.30;100540.69;4942135;28;20050;-88
2022/11/02 02:36:04;;;;;;;10.25;3.38;;;;;;;10.29;78.60;100541.03;4964415;28;20063;-88
2022/11/02 02:38:50;;;;;;;9.45;3.58;;;;;;;10.24;77.85;100539.66;4959304;28;20491;-88
2022/11/02 02:41:24;;;;;;;9.77;3.90;;;;;;;10.31;78.51;100532.97;4928919;28;20046;-87
2022/11/02 02:43:53;;;;;;;8.02;3.55;;;;;;;10.29;78.13;100524.28;4930554;28;20062;-87
2022/11/02 02:46:26;;;;;;;5.63;3.33;;;;;;;10.31;78.53;100525.00;4961867;28;21598;-88
2022/11/02 02:48:55;;;;;;;8.55;4.75;;;;;;;10.29;79.04;100521.63;4931039;28;20460;-87
2022/11/02 02:51:27;;;;;;;7.65;3.60;;;;;;;10.21;78.99;100525.66;4968192;28;20050;-88
2022/11/02 02:54:06;;;;;;;6.47;3.65;;;;;;;10.20;78.98;100521.31;4952566;28;20049;-86
2022/11/02 02:56:38;;;;;;;8.05;3.40;;;;;;;10.24;78.41;100523.75;4953128;28;20049;-87
2022/11/02 02:59:07;;;;;;;10.25;3.90;;;;;;;10.20;78.84;100523.97;4972020;28;20048;-87
2022/11/02 03:01:38;;;;;;;9.20;3.92;;;;;;;10.21;78.57;100516.84;4968265;28;20053;-87
2022/11/02 03:04:10;;;;;;;9.98;3.60;;;;;;;10.25;78.60;100526.25;4983907;28;20050;-87
2022/11/02 03:06:36;;;;;;;8.40;3.47;;;;;;;10.28;79.51;100515.47;4982670;28;20039;-87
2022/11/02 03:09:21;;;;;;;8.32;3.97;;;;;;;10.22;79.83;100519.38;4972507;28;20061;-86
2022/11/02 03:11:59;;;;;;;9.55;3.72;;;;;;;10.18;78.94;100517.09;4970086;28;20050;-87
2022/11/02 03:14:25;;;;;;;9.07;3.50;;;;;;;10.21;79.67;100511.56;4991996;28;20085;-88
2022/11/02 03:17:07;;;;;;;10.40;3.55;;;;;;;10.11;79.51;100507.91;4969472;28;20042;-87
2022/11/02 03:19:55;;;;;;;5.47;3.20;;;;;;;10.08;79.44;100508.13;4913735;28;20055;-87
2022/11/02 03:22:27;;;;;;;7.47;3.70;;;;;;;10.19;78.68;100506.34;4901881;28;20043;-88
2022/11/02 03:25:12;;;;;;;4.25;3.28;;;;;;;10.13;78.76;100514.78;4915911;28;20802;-87
2022/11/02 03:28:05;;;;;;;7.35;3.30;;;;;;;10.08;79.17;100503.66;4909820;28;20059;-87
2022/11/02 03:30:39;;;;;;;5.22;3.80;;;;;;;10.19;79.27;100503.69;4898011;28;20079;-86
2022/11/02 03:33:07;;;;;;;;;;;;;;;9.91;80.84;100510.25;4879457;28;20075;-86
2022/11/02 03:35:55;;;;;;;7.68;4.20;;;;;;;10.09;79.66;100507.16;4898571;28;19951;-86
2022/11/02 03:38:28;;;;;;;5.85;3.28;;;;;;;10.17;79.45;100515.38;4892805;28;20566;-87
2022/11/02 03:40:55;;;;;;;9.88;3.80;;;;;;;10.16;79.34;100519.00;4897073;28;20100;-87
2022/11/02 03:43:24;;;;;;;5.85;3.40;;;;;;;10.10;79.50;100527.41;4898472;28;20051;-87
2022/11/02 03:45:57;;;;;;;9.18;3.40;;;;;;;10.06;78.80;100525.97;4905630;28;20392;-87
2022/11/02 03:48:29;;;;;;;8.63;3.47;;;;;;;10.11;79.22;100513.22;4909942;28;20080;-87
2022/11/02 03:51:00;;;;;;;6.80;3.17;;;;;;;10.14;78.78;100523.59;4927085;28;20108;-88
2022/11/02 03:53:33;;;;;;;6.57;3.15;;;;;;;10.10;78.19;100524.75;4951709;28;20042;-87
2022/11/02 03:56:05;;;;;;;3.65;2.60;;;;;;;10.05;78.90;100518.97;4950305;28;20046;-87
2022/11/02 03:58:34;;;;;;;6.13;2.67;;;;;;;10.06;78.88;100516.22;4973739;28;20089;-87
2022/11/02 04:01:03;;;;;;;5.43;2.80;;;;;;;10.11;78.18;100519.34;4969079;28;20043;-87
2022/11/02 04:03:32;;;;;;;7.10;2.92;;;;;;;10.15;78.18;100531.44;4946819;28;20051;-87
2022/11/02 04:05:59;;;;;;;8.30;3.15;;;;;;;10.12;78.19;100520.19;4937731;28;20674;-89
2022/11/02 04:08:35;;;;;;;6.13;2.67;;;;;;;10.04;77.40;100526.09;4936715;28;20451;-88
2022/11/02 04:16:42;;;;;;;8.55;2.72;;;;;;;9.96;78.28;100531.97;4937095;28;20049;-87
2022/11/02 04:19:26;;;;;;;5.28;2.75;;;;;;;10.00;78.88;100535.25;4951519;28;20494;-88
2022/11/02 04:27:33;;;;;;;5.95;2.90;;;;;;;10.01;80.01;100531.63;4938430;28;20050;-87
2022/11/02 04:30:00;;;;;;;6.18;2.75;;;;;;;10.00;80.08;100537.91;4933834;28;20047;-87
2022/11/02 04:35:22;;;;;;;4.85;2.72;;;;;;;9.99;78.77;100542.34;4942564;28;20051;-88
2022/11/02 04:40:38;;;;;;;4.60;2.80;;;;;;;9.93;79.27;100542.81;4940000;28;20050;-87
2022/11/02 04:43:05;;;;;;;7.25;2.90;;;;;;;9.93;79.44;100545.47;4918113;28;20550;-87
2022/11/02 04:45:33;;;;;;;6.32;2.70;;;;;;;9.95;79.10;100551.50;4948572;28;20039;-86
2022/11/02 04:48:02;;;;;;;5.10;2.75;;;;;;;9.94;78.77;100551.59;4953802;28;20042;-88
2022/11/02 04:50:30;;;;;;;4.80;2.45;;;;;;;9.96;78.54;100552.34;4948172;28;20430;-87
2022/11/02 04:52:59;;;;;;;5.40;2.85;;;;;;;9.91;79.15;100562.47;4970981;28;20074;-87
2022/11/02 04:55:28;;;;;;;4.90;2.75;;;;;;;9.94;78.69;100560.41;4961204;28;20652;-87
2022/11/02 04:57:55;;;;;;;6.63;2.67;;;;;;;9.95;78.79;100572.72;4981932;28;20054;-87
2022/11/02 05:00:22;;;;;;;5.65;2.55;;;;;;;9.93;78.89;100560.53;4981724;28;20425;-87
2022/11/02 05:02:51;;;;;;;6.30;2.83;;;;;;;9.93;78.66;100572.00;4968547;28;20943;-87
2022/11/02 05:05:20;;;;;;;8.68;2.78;;;;;;;9.95;78.54;100572.72;4935107;28;20050;-89
2022/11/02 05:07:49;;;;;;;5.47;2.65;;;;;;;9.95;78.58;100579.84;4948914;28;20168;-86
2022/11/02 05:10:16;;;;;;;5.28;3.03;;;;;;;9.97;78.54;100578.78;4965474;28;20056;-90
2022/11/02 05:12:45;;;;;;;5.38;2.80;;;;;;;9.93;78.68;100576.47;4981226;28;20053;-90
2022/11/02 05:15:12;;;;;;;8.25;2.75;;;;;;;9.94;78.43;100575.47;4968392;28;20046;-88
2022/11/02 05:17:39;;;;;;;6.47;2.80;;;;;;;9.95;78.15;100570.06;4953571;28;20054;-87
2022/11/02 05:20:10;;;;;;;7.18;2.80;;;;;;;9.96;78.28;100577.06;4925859;28;20054;-87
2022/11/02 05:22:41;;;;;;;8.35;2.65;;;;;;;9.93;78.52;100573.81;4939663;28;20048;-87
2022/11/02 05:25:09;;;;;;;10.40;2.75;;;;;;;10.04;78.01;100571.19;4972488;28;20117;-87
2022/11/02 05:27:36;;;;;;;6.60;2.75;;;;;;;9.94;79.39;100572.84;4958164;28;20136;-87
2022/11/02 05:30:04;;;;;;;8.75;3.20;;;;;;;9.93;79.62;100571.16;4958430;28;20050;-90
2022/11/02 05:32:33;;;;;;;6.78;3.13;;;;;;;9.95;79.97;100575.38;4972833;28;20076;-86
2022/11/02 05:35:01;;;;;;;5.35;3.00;;;;;;;10.00;80.11;100572.41;4975164;28;20038;-86
2022/11/02 05:37:28;;;;;;;3.90;2.70;;;;;;;10.00;80.59;100580.34;4992665;28;20454;-86
2022/11/02 05:39:57;;;;;;;6.25;2.92;;;;;;;9.98;80.56;100585.75;4968350;28;20057;-84
2022/11/02 05:42:24;;;;;;;4.88;3.13;;;;;;;9.96;80.50;100589.50;4965382;28;20045;-84
2022/11/02 05:44:51;;;;;;;5.85;2.67;;;;;;;9.98;80.48;100582.28;4988325;28;20042;-87
2022/11/02 05:47:18;;;;;;;5.22;3.10;;;;;;;10.02;80.39;100591.69;4972855;28;20054;-88
2022/11/02 05:49:44;;;;;;;6.82;3.00;;;;;;;9.99;80.96;100591.91;4973617;28;20112;-89
2022/11/02 05:52:11;;;;;;;6.63;3.15;;;;;;;10.03;81.13;100598.69;4972201;28;20042;-88
2022/11/02 05:54:38;;;;;;;5.75;3.15;;;;;;;10.05;80.71;100595.91;4990891;28;20046;-88
2022/11/02 05:57:04;;;;;;;6.00;3.10;;;;;;;9.99;81.22;100592.75;4970618;28;20060;-87
2022/11/02 05:59:31;;;;;;;11.07;3.15;;;;;;;10.07;80.93;100596.66;4988723;28;20100;-88
2022/11/02 06:01:58;;;;;;;7.35;3.00;;;;;;;10.07;80.80;100597.50;4990499;28;20070;-89
2022/11/02 06:04:25;;;;;;;5.32;2.88;;;;;;;10.08;80.48;100595.72;4989915;28;20085;-88
2022/11/02 06:06:51;;;;;;;5.25;2.88;;;;;;;10.02;81.24;100596.97;4993484;28;20045;-88
2022/11/02 06:09:18;;;;;;;7.88;3.22;;;;;;;10.07;81.63;100605.44;4960173;28;20042;-88
2022/11/02 06:11:45;;;;;;;7.97;3.38;;;;;;;10.06;82.15;100606.44;4987584;28;20046;-89
2022/11/02 06:14:11;;;;;;;6.63;3.30;;;;;;;10.10;81.39;100610.56;4993507;28;21353;-88
2022/11/02 06:16:38;;;;;;;6.15;3.60;;;;;;;10.13;81.46;100620.94;4957399;28;20051;-89
2022/11/02 06:19:05;;;;;;;9.35;3.58;;;;;;;10.12;81.49;100623.69;4979966;28;20042;-89
2022/11/02 06:21:31;;;;;;;8.07;3.30;;;;;;;10.13;81.95;100623.59;4985642;28;20589;-88
2022/11/02 06:23:58;;;;;;;6.28;3.47;;;;;;;10.15;82.07;100631.41;4987149;28;20506;-87
2022/11/02 06:26:25;;;;;;;6.93;3.28;;;;;;;10.19;81.76;100641.69;4988111;28;20445;-89
2022/11/02 06:28:52;;;;;;;5.32;3.13;;;;;;;10.12;81.84;100637.81;4965664;28;20105;-89
2022/11/02 06:31:19;;;;;;;6.22;2.97;;;;;;;10.17;81.79;100642.78;4956218;28;21078;-88
2022/11/02 06:33:46;;;;;;;6.80;3.17;;;;;;;10.18;81.68;100645.31;4973392;28;20039;-88
2022/11/02 06:36:12;;;;;;;6.50;3.33;;;;;;;10.21;81.87;100645.09;4987328;28;20065;-90
2022/11/02 06:38:40;;;;;;;8.18;3.38;;;;;;;10.18;81.95;100658.59;4972064;28;20096;-88
2022/11/02 06:41:07;;;;;;;7.70;3.53;;;;;;;10.13;81.98;100654.59;4990330;28;20132;-89
2022/11/02 06:43:37;;;;;;;10.10;3.53;;;;;;;10.16;82.00;100663.16;4973049;28;20096;-88
2022/11/02 06:46:04;;;;;;;7.10;3.25;;;;;;;10.21;81.64;100662.84;4969779;28;20575;-89
2022/11/02 06:48:32;;;;;;;5.50;3.28;;;;;;;10.16;82.69;100667.63;4970588;28;20077;-84
2022/11/02 06:51:02;;;;;;;7.15;3.42;;;;;;;10.21;82.93;100671.63;4989801;28;20082;-88
2022/11/02 06:53:28;;;;;;;7.53;3.42;;;;;;;10.22;82.75;100667.16;4984722;28;20105;-88
2022/11/02 06:55:56;;;;;;;7.47;3.47;;;;;;;10.21;82.89;100668.16;4987130;28;20061;-89
2022/11/02 06:58:23;;;;;;;5.18;3.35;;;;;;;10.23;83.00;100674.19;4952904;28;23818;-88
2022/11/02 07:00:56;;;;;;;7.72;4.22;;;;;;;10.17;83.62;100672.81;4950152;28;20043;-90
2022/11/02 07:03:23;;;;;;;6.38;3.83;;;;;;;10.25;83.37;100677.56;4951287;28;20043;-89
2022/11/02 07:05:53;;;;;;;5.75;3.80;;;;;;;10.21;83.89;100686.72;4937365;28;20050;-88
2022/11/02 07:08:20;;;;;;;4.63;2.92;;;;;;;10.22;83.77;100685.75;4975028;28;20113;-88
2022/11/02 07:10:47;;;;;;;5.72;3.05;;;;;;;10.25;83.67;100682.88;4949346;28;20047;-88
2022/11/02 07:13:14;;;;;;;12.10;3.90;;;;;;;10.28;83.00;100688.00;4966402;28;20410;-89
2022/11/02 07:15:41;;;;;;;8.10;3.42;;;;;;;10.26;82.96;100691.69;4987420;28;20042;-89
2022/11/02 07:18:08;;;;;;;5.90;3.40;;;;;;;10.29;83.03;100688.84;4975551;28;20129;-88
2022/11/02 07:20:35;;;;;;;5.97;3.55;;;;;;;10.26;83.15;100695.19;4935840;28;20054;-89
2022/11/02 07:23:02;;;;;;;9.27;3.83;;;;;;;10.32;83.23;100700.06;4964040;28;20497;-88
2022/11/02 07:25:31;;;;;;;8.50;3.63;;;;;;;10.31;83.78;100705.50;4987494;28;20042;-88
2022/11/02 07:27:59;;;;;;;9.05;4.18;;;;;;;10.33;84.25;100714.19;4982861;28;20077;-88
2022/11/02 07:30:31;;;;;;;7.80;4.28;;;;;;;10.22;84.99;100715.78;4972690;28;20101;-89
2022/11/02 07:32:57;;;;;;;10.07;4.13;;;;;;;10.33;84.45;100723.03;4975172;28;20111;-87
2022/11/02 07:35:24;;;;;;;7.65;4.15;;;;;;;10.33;84.49;100727.47;4989609;28;20045;-89
2022/11/02 07:38:01;;;;;;;6.05;4.57;;;;;;;10.29;83.67;100724.19;4989587;28;20038;-88
2022/11/02 07:40:29;;;;;;;13.65;5.53;;;;;;;10.37;83.48;100728.94;4985788;28;20055;-88
2022/11/02 07:42:57;;;;;;;9.73;4.90;;;;;;;10.37;84.10;100732.44;4936380;28;20059;-88
2022/11/02 07:45:40;;;;;;;12.20;5.03;;;;;;;10.41;83.99;100718.00;4936278;28;20046;-88
2022/11/02 07:48:07;;;;;;;8.88;5.05;;;;;;;10.44;84.72;100724.88;4963669;28;20447;-88
2022/11/02 07:50:34;;;;;;;13.05;5.93;;;;;;;10.49;85.03;100717.44;4973116;28;20043;-89
2022/11/02 07:53:00;;;;;;;14.20;6.60;;;;;;;10.50;86.00;100721.75;5000014;28;20058;-88
2022/11/02 07:55:29;;;;;;;16.55;7.45;;;;;;;10.56;85.71;100726.63;4954662;28;20048;-88
2022/11/02 07:58:04;;;;;;;12.70;7.18;;;;;;;10.59;86.14;100729.06;4993087;28;20494;-89
2022/11/02 08:00:33;;;;;;;10.48;6.50;;;;;;;10.62;86.13;100735.94;4977922;28;20054;-84
2022/11/02 08:03:00;;;;;;;10.52;6.65;;;;;;;10.62;85.76;100743.91;4969080;28;21008;-89
2022/11/02 08:05:29;;;;;;;14.68;8.63;;;;;;;10.67;85.28;100743.59;4975439;28;20121;-87
2022/11/02 08:07:59;;;;;;;13.63;6.72;;;;;;;10.65;85.41;100741.03;4978818;28;20054;-89
2022/11/02 08:10:27;;;;;;;10.77;6.07;;;;;;;10.67;85.63;100748.91;4969132;28;20512;-89
2022/11/02 08:12:54;;;;;;;11.50;6.80;;;;;;;10.70;85.59;100749.50;4974588;28;20376;-88
2022/11/02 08:15:21;;;;;;;11.00;5.75;;;;;;;10.66;85.79;100753.38;4967905;28;20417;-88
2022/11/02 08:17:59;;;;;;;9.90;6.10;;;;;;;10.60;86.12;100754.66;4958163;28;20116;-89
2022/11/02 08:20:26;;;;;;;8.38;5.10;;;;;;;10.66;85.88;100753.38;4950790;28;20047;-89
2022/11/02 08:22:53;;;;;;;10.10;5.50;;;;;;;10.71;85.25;100758.31;4966432;28;20054;-88
2022/11/02 08:25:19;;;;;;;12.35;5.75;;;;;;;10.71;85.62;100763.63;4965360;28;20050;-88
2022/11/02 08:27:46;;;;;;;13.73;5.15;;;;;;;10.73;85.51;100764.38;4967758;28;20095;-89
2022/11/02 08:30:13;;;;;;;11.80;5.82;;;;;;;10.77;85.79;100761.38;4968479;28;20510;-89
2022/11/02 08:32:39;;;;;;;10.60;4.85;;;;;;;10.77;86.16;100764.03;4959904;28;20146;-89
2022/11/02 08:35:06;;;;;;;11.13;4.97;;;;;;;10.75;86.44;100763.28;4963977;28;20053;-89
2022/11/02 08:37:33;;;;;;;13.30;5.05;;;;;;;10.84;86.16;100767.09;4985573;28;20042;-88
2022/11/02 08:40:00;;;;;;;9.07;4.68;;;;;;;10.84;86.94;100767.09;4974391;28;20042;-91
2022/11/02 08:42:26;;;;;;;10.18;4.93;;;;;;;10.84;86.98;100767.94;4989001;28;20062;-90
2022/11/02 08:44:53;;;;;;;9.27;4.40;;;;;;;10.84;87.24;100762.63;4954022;28;20375;-88
2022/11/02 08:47:20;;;;;;;11.88;5.57;;;;;;;10.88;87.39;100767.69;4970605;28;20034;-88
2022/11/02 08:49:47;;;;;;;9.45;4.80;;;;;;;10.91;86.98;100763.00;4987332;28;20517;-85
2022/11/02 08:52:13;;;;;;;9.20;5.38;;;;;;;10.91;87.60;100768.31;4971145;28;20497;-88
2022/11/02 08:54:40;;;;;;;15.60;5.93;;;;;;;10.90;87.64;100765.78;4974820;28;20438;-89
2022/11/02 08:57:07;;;;;;;7.80;4.30;;;;;;;10.90;87.97;100766.63;4992051;28;20427;-90
2022/11/02 08:59:33;;;;;;;13.55;4.82;;;;;;;10.92;88.31;100769.16;4987991;28;20065;-89
2022/11/02 09:02:00;;;;;;;8.68;5.13;;;;;;;10.94;88.35;100768.09;4986258;28;20121;-89
2022/11/02 09:04:27;;;;;;;12.02;5.82;;;;;;;10.97;88.50;100765.19;4969074;28;20141;-89
2022/11/02 09:06:53;;;;;;;9.70;5.55;;;;;;;10.99;88.80;100770.38;4981753;28;20050;-89
2022/11/02 09:09:20;;;;;;;12.40;5.22;;;;;;;11.01;88.91;100769.31;4985089;28;20050;-88
2022/11/02 09:11:49;;;;;;;10.23;5.40;;;;;;;11.05;88.71;100772.59;4981003;28;20102;-89
2022/11/02 09:14:15;;;;;;;11.23;5.53;;;;;;;11.07;88.93;100768.84;4985854;28;20105;-88
2022/11/02 09:16:42;;;;;;;14.10;6.03;;;;;;;11.12;89.10;100770.31;4968511;28;20120;-90
2022/11/02 09:19:09;;;;;;;7.68;4.32;;;;;;;11.16;88.70;100753.16;4971216;28;20066;-89
2022/11/02 09:21:36;;;;;;;12.23;4.85;;;;;;;11.21;89.04;100757.16;4970136;28;20042;-88
2022/11/02 09:24:03;;;;;;;10.65;4.05;;;;;;;11.26;89.01;100756.81;4985449;28;20070;-88
2022/11/02 09:26:30;;;;;;;6.95;3.72;;;;;;;11.31;88.73;100765.28;4969976;28;20518;-90
2022/11/02 09:28:56;;;;;;;7.47;3.08;;;;;;;11.38;88.76;100774.50;4988165;28;20119;-90
2022/11/02 09:31:23;;;;;;;10.68;2.95;;;;;;;11.42;89.16;100772.44;4977010;28;20052;-85
2022/11/02 09:33:50;;;;;;;11.63;3.28;;;;;;;11.45;89.14;100775.72;4969962;28;20481;-88
2022/11/02 09:36:16;;;;;;;8.48;2.88;;;;;;;11.46;89.62;100777.41;4984930;28;20433;-89
2022/11/02 09:38:43;;;;;;;17.77;3.20;;;;;;;11.49;89.76;100782.47;4970002;28;20048;-89
2022/11/02 09:41:29;;;;;;;6.47;2.72;;;;;;;11.46;90.33;100780.06;4988752;28;20046;-89
2022/11/02 09:44:06;;;;;;;10.48;2.50;;;;;;;11.50;89.78;100789.50;4949058;28;20042;-89
2022/11/02 09:46:36;;;;;;;10.07;2.40;;;;;;;11.57;89.48;100781.88;4971486;28;20125;-88
2022/11/02 09:49:10;;;;;;;7.35;2.17;;;;;;;11.59;89.48;100787.09;5008027;28;20498;-89
2022/11/02 09:51:43;;;;;;;10.82;2.70;;;;;;;11.63;89.90;100785.91;4985985;28;20058;-89
2022/11/02 09:54:32;;;;;;;9.75;2.88;;;;;;;11.63;90.52;100792.06;4965376;28;20050;-89
2022/11/02 09:57:14;;;;;;;7.63;2.40;;;;;;;11.68;90.56;100783.75;4983704;28;20097;-88
2022/11/02 09:59:41;;;;;;;7.30;2.30;;;;;;;11.77;89.65;100782.16;4955927;28;20094;-89
2022/11/02 10:02:16;;;;;;;10.82;2.45;;;;;;;11.82;89.50;100777.31;4931071;28;20047;-87
2022/11/02 10:05:37;;;;;;;9.23;3.00;;;;;;;11.80;91.19;100785.41;4949976;28;20039;-89
2022/11/02 10:08:37;;;;;;;11.40;2.63;;;;;;;11.84;89.65;100784.22;4927951;28;20112;-89
2022/11/02 10:11:21;;;;;;;14.25;2.70;;;;;;;11.87;88.92;100776.03;4946386;28;20120;-89
2022/11/02 10:14:06;;;;;;;9.82;2.47;;;;;;;11.89;88.43;100779.41;4952933;28;25170;-89
2022/11/02 10:16:36;;;;;;;10.25;2.03;;;;;;;11.99;87.85;100770.72;4942614;28;20100;-89
2022/11/02 10:19:07;;;;;;;9.48;1.98;;;;;;;12.03;87.26;100764.16;4999381;28;20046;-90
2022/11/02 10:21:37;;;;;;;8.07;2.10;;;;;;;11.99;87.46;100760.91;4974027;28;20050;-90
2022/11/02 10:24:28;;;;;;;11.65;2.10;;;;;;;11.97;86.73;100764.66;4991074;28;20054;-90
2022/11/02 10:26:58;;;;;;;10.60;2.10;;;;;;;12.04;86.48;100761.38;4967521;28;20105;-89
2022/11/02 10:29:47;;;;;;;10.07;1.85;;;;;;;11.98;86.33;100763.69;4963422;28;20047;-88
2022/11/02 10:32:15;;;;;;;11.38;1.90;;;;;;;12.09;86.43;100767.19;4908024;28;20496;-89
2022/11/02 10:34:43;;;;;;;9.82;2.25;;;;;;;12.15;86.40;100771.16;4941081;28;20055;-88
2022/11/02 10:37:50;;;;;;;11.13;1.65;;;;;;;12.13;85.93;100763.28;4928106;28;20407;-89
2022/11/02 10:40:35;;;;;;;9.43;2.58;;;;;;;12.27;85.44;100766.69;4971410;28;20058;-89
2022/11/02 10:43:24;;;;;;;15.38;1.77;;;;;;;12.28;85.24;100760.38;4978135;28;20128;-89
2022/11/02 10:46:04;;;;;;;9.57;2.08;;;;;;;12.33;84.93;100763.50;4943367;28;20047;-90
2022/11/02 10:49:18;;;;;;;10.60;1.85;;;;;;;12.34;83.91;100759.91;4948047;28;20375;-89
2022/11/02 10:51:44;;;;;;;11.73;2.13;;;;;;;12.47;83.77;100762.41;4870905;28;20050;-89
2022/11/02 10:54:13;;;;;;;6.22;1.63;;;;;;;12.52;83.55;100760.22;4987005;28;20054;-88
2022/11/02 10:56:48;;;;;;;10.10;1.77;;;;;;;12.55;83.07;100755.47;4965466;28;20039;-88
2022/11/02 10:59:17;;;;;;;11.82;1.67;;;;;;;12.58;82.97;100755.22;4985527;28;20664;-90
2022/11/02 11:02:07;;;;;;;11.98;3.25;;;;;;;12.55;82.73;100768.78;4975119;28;20038;-90
2022/11/02 11:04:34;;;;;;;11.75;2.40;;;;;;;12.67;83.10;100776.72;4956570;28;20122;-89
2022/11/02 11:07:15;;;;;;;11.73;2.42;;;;;;;12.69;82.63;100775.63;4972234;28;20046;-90
2022/11/02 11:09:54;;;;;;;9.20;1.83;;;;;;;12.65;81.28;100768.03;4972691;28;20049;-89
2022/11/02 11:12:24;;;;;;;8.13;1.80;;;;;;;12.71;81.34;100755.03;4995767;28;20513;-90
2022/11/02 11:14:54;;;;;;;15.60;2.53;;;;;;;12.74;80.85;100754.78;4985265;28;20042;-90
2022/11/02 11:17:41;;;;;;;14.82;2.63;;;;;;;12.75;80.52;100753.81;4921045;28;20126;-90
2022/11/02 11:20:36;;;;;;;9.60;2.25;;;;;;;12.72;80.62;100755.88;4992454;28;20409;-89
2022/11/02 11:23:10;;;;;;;6.65;2.00;;;;;;;12.76;81.01;100757.31;4970336;28;20128;-89
2022/11/02 11:25:39;;;;;;;17.88;2.80;;;;;;;12.80;81.23;100764.94;4984982;28;20211;-84
2022/11/02 11:28:26;;;;;;;11.63;2.22;;;;;;;12.73;78.57;100755.75;4969931;28;20047;-89
2022/11/02 11:31:09;;;;;;;7.50;1.80;;;;;;;12.77;79.34;100756.34;4969382;28;20540;-90
2022/11/02 11:34:18;;;;;;;13.35;2.55;;;;;;;12.80;79.07;100743.63;4984822;28;20104;-89
2022/11/02 11:36:44;;;;;;;17.13;2.45;;;;;;;12.96;79.29;100732.53;4918911;28;20057;-88
2022/11/02 11:39:25;;;;;;;8.75;1.90;;;;;;;13.00;78.11;100736.63;4987671;28;20504;-90
2022/11/02 11:41:52;;;;;;;10.50;1.83;;;;;;;13.12;78.31;100740.06;4968294;28;20143;-88
2022/11/02 11:44:18;;;;;;;12.90;2.10;;;;;;;13.18;78.13;100730.72;4987523;28;20050;-89
2022/11/02 11:46:51;;;;;;;8.65;1.70;;;;;;;13.21;77.36;100725.13;4972945;28;20050;-89
2022/11/02 11:49:31;;;;;;;7.45;1.58;;;;;;;13.17;76.37;100726.34;4999538;28;20046;-88
2022/11/02 11:52:29;;;;;;;7.38;1.65;;;;;;;13.19;75.88;100738.56;4952804;28;20096;-88
2022/11/02 11:55:18;;;;;;;6.03;1.52;;;;;;;13.17;75.18;100724.50;4942321;28;20050;-88
2022/11/02 11:57:45;;;;;;;9.00;1.65;;;;;;;13.28;75.60;100722.78;4961407;28;20105;-90
2022/11/02 12:00:26;;;;;;;6.88;1.67;;;;;;;13.19;74.45;100727.06;4988180;28;20390;-88